createdAt,value
2022-11-26T00:00:31.426Z,9.60
2022-11-26T00:02:59.391Z,14.25
2022-11-26T00:05:32.616Z,11.02
2022-11-26T00:08:02.005Z,10.13
2022-11-26T00:10:36.343Z,9.35
2022-11-26T00:13:04.167Z,9.55
2022-11-26T00:15:32.946Z,8.43
2022-11-26T00:18:01.126Z,11.60
2022-11-26T00:20:31.908Z,9.35
2022-11-26T00:23:03.194Z,12.07
2022-11-26T00:25:39.533Z,12.38
2022-11-26T00:28:30.470Z,10.80
2022-11-26T00:31:00.434Z,9.75
2022-11-26T00:33:29.739Z,10.07
2022-11-26T00:36:00.015Z,9.57
2022-11-26T00:38:28.564Z,9.43
2022-11-26T00:40:58.001Z,7.05
2022-11-26T00:43:25.847Z,8.30
2022-11-26T00:45:53.742Z,6.05
2022-11-26T00:48:21.659Z,10.38
2022-11-26T00:50:51.831Z,10.38
2022-11-26T00:53:23.485Z,8.30
2022-11-26T00:55:51.760Z,7.25
2022-11-26T00:58:27.074Z,10.50
2022-11-26T01:00:56.441Z,5.68
2022-11-26T01:03:24.646Z,6.07
2022-11-26T01:05:54.574Z,10.52
2022-11-26T01:08:29.504Z,12.60
2022-11-26T01:10:57.528Z,8.63
2022-11-26T01:13:27.466Z,7.75
2022-11-26T01:15:55.775Z,8.85
2022-11-26T01:18:24.167Z,8.52
2022-11-26T01:20:52.313Z,9.43
2022-11-26T01:23:21.317Z,7.07
2022-11-26T01:25:49.270Z,10.23
2022-11-26T01:28:19.132Z,9.15
2022-11-26T01:30:48.327Z,6.63
2022-11-26T01:33:16.136Z,5.25
2022-11-26T01:35:43.961Z,8.63
2022-11-26T01:38:15.046Z,9.15
2022-11-26T01:41:05.841Z,7.13
2022-11-26T01:43:38.304Z,5.35
2022-11-26T01:46:14.555Z,5.30
2022-11-26T01:48:42.459Z,6.05
2022-11-26T01:51:11.851Z,7.85
2022-11-26T01:53:46.650Z,8.07
2022-11-26T01:56:21.587Z,6.80
2022-11-26T01:58:55.078Z,8.02
2022-11-26T02:01:24.687Z,9.48
2022-11-26T02:04:00.536Z,6.90
2022-11-26T02:06:32.906Z,9.43
2022-11-26T02:09:02.328Z,10.93
2022-11-26T02:11:30.328Z,6.10
2022-11-26T02:14:02.149Z,9.05
2022-11-26T02:16:46.362Z,9.95
2022-11-26T02:19:36.310Z,9.65
2022-11-26T02:22:10.419Z,6.68
2022-11-26T02:24:49.586Z,7.53
2022-11-26T02:27:42.100Z,10.05
2022-11-26T02:30:13.325Z,7.13
2022-11-26T02:33:02.464Z,7.32
2022-11-26T02:35:36.396Z,7.35
2022-11-26T02:38:08.778Z,7.18
2022-11-26T02:40:36.667Z,9.80
2022-11-26T02:43:04.516Z,5.38
2022-11-26T02:45:38.105Z,9.98
2022-11-26T02:48:11.076Z,8.75
2022-11-26T02:50:43.404Z,8.18
2022-11-26T02:55:43.890Z,6.15
2022-11-26T02:58:11.796Z,11.18
2022-11-26T03:00:43.725Z,6.07
2022-11-26T03:03:22.806Z,6.03
2022-11-26T03:05:53.741Z,6.63
2022-11-26T03:08:22.904Z,9.07
2022-11-26T03:10:50.732Z,8.63
2022-11-26T03:13:18.623Z,6.72
2022-11-26T03:15:48.498Z,7.97
2022-11-26T03:18:16.383Z,8.57
2022-11-26T03:20:44.234Z,7.30
2022-11-26T03:23:12.101Z,9.15
2022-11-26T03:25:40.028Z,8.60
2022-11-26T03:28:07.939Z,7.32
2022-11-26T03:30:35.968Z,7.97
2022-11-26T03:33:05.234Z,9.95
2022-11-26T03:35:33.051Z,6.07
2022-11-26T03:38:00.854Z,7.22
2022-11-26T03:40:28.684Z,9.15
2022-11-26T03:42:56.477Z,6.68
2022-11-26T03:45:24.328Z,7.53
2022-11-26T03:47:52.177Z,11.05
2022-11-26T03:50:21.381Z,8.68
2022-11-26T03:52:49.211Z,8.25
2022-11-26T03:55:17.152Z,5.90
2022-11-26T03:57:44.977Z,7.30
2022-11-26T04:00:14.589Z,6.80
2022-11-26T04:02:42.569Z,9.77
2022-11-26T04:05:10.603Z,9.60
2022-11-26T04:07:39.864Z,10.82
2022-11-26T04:10:09.215Z,10.68
2022-11-26T04:12:37.084Z,7.75
2022-11-26T04:15:05.514Z,8.23
2022-11-26T04:17:33.330Z,8.50
2022-11-26T04:20:01.156Z,9.85
2022-11-26T04:22:28.959Z,8.40
2022-11-26T04:24:58.107Z,8.20
2022-11-26T04:27:25.924Z,11.68
2022-11-26T04:29:53.717Z,6.32
2022-11-26T04:32:21.522Z,8.95
2022-11-26T04:34:49.340Z,9.10
2022-11-26T04:37:17.160Z,11.13
2022-11-26T04:39:44.980Z,12.82
2022-11-26T04:42:14.151Z,13.00
2022-11-26T04:44:41.956Z,11.35
2022-11-26T04:47:09.788Z,8.05
2022-11-26T04:49:37.604Z,10.02
2022-11-26T04:52:05.777Z,10.05
2022-11-26T04:54:33.634Z,9.55
2022-11-26T04:57:01.470Z,8.15
2022-11-26T04:59:30.692Z,8.50
2022-11-26T05:01:59.547Z,8.63
2022-11-26T05:04:27.487Z,9.05
2022-11-26T05:06:55.399Z,6.47
2022-11-26T05:09:23.608Z,8.55
2022-11-26T05:11:51.422Z,9.10
2022-11-26T05:14:19.300Z,8.52
2022-11-26T05:16:48.614Z,13.13
2022-11-26T05:19:16.525Z,9.02
2022-11-26T05:21:44.376Z,9.95
2022-11-26T05:24:12.166Z,10.05
2022-11-26T05:26:40.001Z,10.10
2022-11-26T05:29:07.846Z,11.80
2022-11-26T05:31:35.724Z,9.85
2022-11-26T05:34:05.171Z,8.93
2022-11-26T05:36:33.464Z,9.82
2022-11-26T05:39:01.395Z,12.32
2022-11-26T05:41:29.263Z,9.07
2022-11-26T05:43:57.095Z,10.98
2022-11-26T05:46:24.999Z,9.68
2022-11-26T05:48:52.822Z,9.40
2022-11-26T05:51:22.018Z,10.65
2022-11-26T05:53:49.823Z,10.60
2022-11-26T05:56:17.663Z,9.55
2022-11-26T05:58:45.607Z,9.25
2022-11-26T06:01:13.671Z,10.48
2022-11-26T06:03:42.396Z,8.45
2022-11-26T06:06:10.571Z,11.68
2022-11-26T06:08:39.762Z,8.63
2022-11-26T06:11:07.688Z,10.63
2022-11-26T06:13:35.562Z,7.32
2022-11-26T06:16:03.512Z,10.80
2022-11-26T06:18:31.360Z,11.18
2022-11-26T06:21:01.400Z,9.40
2022-11-26T06:23:29.357Z,9.98
2022-11-26T06:25:58.571Z,8.93
2022-11-26T06:28:26.586Z,8.50
2022-11-26T06:30:54.493Z,15.82
2022-11-26T06:33:22.338Z,8.13
2022-11-26T06:35:50.188Z,12.02
2022-11-26T06:38:18.043Z,12.77
2022-11-26T06:40:45.883Z,13.30
2022-11-26T06:43:15.094Z,13.02
2022-11-26T06:45:42.947Z,12.82
2022-11-26T06:48:10.831Z,10.88
2022-11-26T06:50:38.643Z,11.63
2022-11-26T06:53:06.488Z,9.98
2022-11-26T06:55:34.326Z,10.68
2022-11-26T06:58:02.152Z,11.13
2022-11-26T07:00:31.312Z,13.40
2022-11-26T07:02:59.245Z,8.45
2022-11-26T07:05:27.199Z,10.80
2022-11-26T07:07:55.106Z,10.35
2022-11-26T07:10:23.010Z,8.63
2022-11-26T07:12:50.836Z,9.63
2022-11-26T07:15:18.819Z,11.30
2022-11-26T07:17:48.011Z,11.32
2022-11-26T07:20:16.125Z,11.70
2022-11-26T07:22:43.979Z,12.45
2022-11-26T07:25:12.921Z,10.20
2022-11-26T07:27:41.248Z,9.52
2022-11-26T07:30:10.227Z,9.63
2022-11-26T07:32:38.073Z,11.32
2022-11-26T07:35:07.959Z,8.15
2022-11-26T07:37:35.871Z,6.95
2022-11-26T07:40:04.452Z,9.05
2022-11-26T07:42:33.193Z,8.60
2022-11-26T07:45:01.614Z,8.48
2022-11-26T07:47:29.457Z,8.65
2022-11-26T07:49:57.282Z,7.90
2022-11-26T07:52:26.510Z,8.07
2022-11-26T07:54:54.343Z,9.27
2022-11-26T07:57:22.943Z,7.05
2022-11-26T07:59:50.748Z,6.20
2022-11-26T08:02:19.154Z,7.78
2022-11-26T08:04:47.071Z,7.32
2022-11-26T08:07:22.100Z,5.88
2022-11-26T08:09:55.184Z,8.40
2022-11-26T08:12:23.052Z,5.88
2022-11-26T08:14:50.884Z,6.30
2022-11-26T08:17:18.714Z,10.63
2022-11-26T08:19:46.560Z,8.27
2022-11-26T08:22:14.458Z,8.90
2022-11-26T08:24:42.288Z,8.63
2022-11-26T08:27:11.876Z,10.77
2022-11-26T08:29:39.863Z,8.93
2022-11-26T08:32:07.777Z,8.10
2022-11-26T08:34:36.009Z,6.75
2022-11-26T08:37:04.143Z,7.53
2022-11-26T08:39:31.995Z,6.57
2022-11-26T08:41:59.867Z,7.38
2022-11-26T08:44:29.079Z,6.38
2022-11-26T08:46:56.933Z,8.10
2022-11-26T08:49:24.876Z,6.75
2022-11-26T08:51:52.685Z,4.50
2022-11-26T08:54:20.545Z,6.90
2022-11-26T08:56:48.357Z,6.88
2022-11-26T08:59:17.405Z,4.65
2022-11-26T09:01:47.067Z,4.03
2022-11-26T09:04:14.952Z,4.68
2022-11-26T09:06:42.935Z,5.78
2022-11-26T09:09:13.972Z,4.93
2022-11-26T09:11:44.077Z,5.57
2022-11-26T09:14:13.309Z,5.97
2022-11-26T09:16:41.356Z,5.78
2022-11-26T09:19:14.642Z,5.15
2022-11-26T09:21:42.796Z,7.28
2022-11-26T09:24:10.651Z,8.45
2022-11-26T09:26:38.664Z,6.78
2022-11-26T09:29:06.661Z,8.27
2022-11-26T09:31:34.570Z,7.47
2022-11-26T09:34:03.118Z,8.52
2022-11-26T09:36:32.646Z,9.88
2022-11-26T09:39:01.087Z,6.93
2022-11-26T09:41:41.866Z,12.88
2022-11-26T09:44:25.340Z,7.18
2022-11-26T09:47:13.819Z,8.20
2022-11-26T09:49:53.148Z,7.43
2022-11-26T09:52:24.883Z,6.43
2022-11-26T09:55:09.168Z,8.30
2022-11-26T09:57:42.837Z,6.45
2022-11-26T10:00:27.764Z,11.02
2022-11-26T10:02:57.285Z,8.13
2022-11-26T10:05:38.292Z,9.98
2022-11-26T10:08:18.653Z,5.90
2022-11-26T10:10:51.353Z,5.82
2022-11-26T10:13:30.147Z,11.32
2022-11-26T10:16:08.788Z,5.82
2022-11-26T10:18:45.021Z,9.65
2022-11-26T10:21:26.968Z,8.50
2022-11-26T10:24:07.070Z,10.43
2022-11-26T10:26:39.198Z,10.57
2022-11-26T10:29:21.556Z,8.43
2022-11-26T10:31:51.236Z,10.77
2022-11-26T10:34:21.649Z,10.60
2022-11-26T10:36:50.549Z,6.63
2022-11-26T10:39:21.619Z,14.98
2022-11-26T10:41:49.915Z,8.77
2022-11-26T10:44:37.289Z,4.97
2022-11-26T10:47:25.031Z,8.00
2022-11-26T10:49:54.426Z,8.73
2022-11-26T10:52:27.682Z,8.10
2022-11-26T10:55:20.447Z,6.57
2022-11-26T10:57:52.059Z,8.63
2022-11-26T11:00:38.788Z,10.10
2022-11-26T11:03:32.883Z,8.38
2022-11-26T11:06:28.972Z,11.10
2022-11-26T11:08:57.103Z,9.10
2022-11-26T11:11:28.827Z,10.00
2022-11-26T11:13:57.321Z,9.13
2022-11-26T11:16:29.649Z,8.20
2022-11-26T11:19:00.474Z,10.35
2022-11-26T11:21:34.266Z,9.45
2022-11-26T11:24:10.986Z,10.88
2022-11-26T11:26:46.355Z,9.55
2022-11-26T11:29:32.855Z,10.82
2022-11-26T11:32:04.378Z,8.88
2022-11-26T11:34:35.647Z,9.98
2022-11-26T11:37:07.301Z,11.38
2022-11-26T11:39:37.378Z,10.52
2022-11-26T11:42:15.541Z,7.97
2022-11-26T11:44:47.266Z,9.38
2022-11-26T11:47:28.624Z,10.13
2022-11-26T11:50:18.212Z,10.30
2022-11-26T11:52:57.068Z,11.43
2022-11-26T11:55:35.860Z,11.88
2022-11-26T11:58:20.738Z,11.00
2022-11-26T12:00:53.092Z,13.40
2022-11-26T12:06:16.158Z,11.23
2022-11-26T12:08:56.579Z,9.20
2022-11-26T12:11:34.236Z,10.00
2022-11-26T12:14:07.438Z,9.50
2022-11-26T12:16:39.032Z,7.05
2022-11-26T12:19:13.322Z,9.20
2022-11-26T12:21:46.410Z,6.15
2022-11-26T12:24:27.807Z,10.43
2022-11-26T12:27:01.106Z,8.40
2022-11-26T12:29:36.301Z,4.38
2022-11-26T12:32:10.268Z,3.60
2022-11-26T12:34:44.637Z,5.85
2022-11-26T12:37:18.683Z,6.95
2022-11-26T12:39:54.133Z,7.63
2022-11-26T12:42:28.574Z,4.68
2022-11-26T12:45:05.559Z,6.07
2022-11-26T12:47:39.404Z,6.68
2022-11-26T12:52:45.332Z,5.45
2022-11-26T12:55:20.693Z,6.45
2022-11-26T12:57:53.691Z,7.55
2022-11-26T13:00:31.372Z,8.10
2022-11-26T13:03:03.286Z,8.82
2022-11-26T13:05:39.307Z,8.27
2022-11-26T13:08:18.231Z,9.70
2022-11-26T13:11:00.416Z,6.28
2022-11-26T13:13:39.356Z,12.73
2022-11-26T13:16:18.663Z,8.35
2022-11-26T13:18:51.440Z,11.45
2022-11-26T13:21:35.121Z,15.95
2022-11-26T13:24:39.381Z,19.33
2022-11-26T13:27:26.889Z,11.93
2022-11-26T13:30:12.614Z,12.70
2022-11-26T13:33:03.344Z,8.90
2022-11-26T13:36:00.434Z,13.32
2022-11-26T13:38:36.065Z,9.43
2022-11-26T13:41:19.967Z,11.40
2022-11-26T13:44:15.046Z,8.80
2022-11-26T13:46:46.637Z,8.60
2022-11-26T13:49:22.744Z,6.80
2022-11-26T13:51:53.859Z,9.90
2022-11-26T13:54:26.866Z,9.25
2022-11-26T13:57:00.430Z,9.45
2022-11-26T13:59:29.920Z,10.70
2022-11-26T14:01:58.067Z,12.50
2022-11-26T14:04:54.624Z,10.38
2022-11-26T14:07:22.808Z,8.93
2022-11-26T14:09:53.475Z,8.65
2022-11-26T14:12:22.476Z,10.18
2022-11-26T14:14:51.091Z,6.45
2022-11-26T14:17:29.949Z,9.55
2022-11-26T14:20:12.036Z,12.25
2022-11-26T14:22:40.143Z,10.02
2022-11-26T14:25:11.371Z,13.18
2022-11-26T14:27:42.742Z,8.40
2022-11-26T14:30:28.324Z,7.57
2022-11-26T14:33:06.400Z,9.48
2022-11-26T14:35:37.732Z,10.32
2022-11-26T14:38:07.657Z,6.45
2022-11-26T14:40:37.518Z,6.95
2022-11-26T14:43:17.177Z,10.18
2022-11-26T14:45:47.737Z,10.75
2022-11-26T14:48:25.598Z,14.38
2022-11-26T14:50:58.184Z,7.40
2022-11-26T14:53:29.031Z,9.20
2022-11-26T14:55:57.974Z,6.93
2022-11-26T14:58:31.959Z,5.72
2022-11-26T15:01:09.277Z,13.48
2022-11-26T15:03:37.347Z,12.93
2022-11-26T15:06:07.091Z,18.83
2022-11-26T15:08:34.962Z,13.43
2022-11-26T15:11:06.580Z,7.97
2022-11-26T15:13:38.165Z,12.13
2022-11-26T15:16:27.435Z,9.25
2022-11-26T15:18:56.205Z,6.55
2022-11-26T15:21:27.592Z,9.88
2022-11-26T15:23:59.790Z,11.87
2022-11-26T15:26:33.112Z,7.95
2022-11-26T15:29:00.984Z,18.73
2022-11-26T15:31:40.556Z,21.35
2022-11-26T15:34:13.458Z,16.33
2022-11-26T15:36:42.787Z,13.15
2022-11-26T15:39:25.892Z,10.80
2022-11-26T15:41:56.061Z,14.35
2022-11-26T15:44:26.947Z,11.43
2022-11-26T15:46:57.489Z,13.25
2022-11-26T15:49:29.822Z,8.52
2022-11-26T15:54:49.474Z,16.70
2022-11-26T15:57:24.768Z,12.95
2022-11-26T15:59:56.133Z,13.05
2022-11-26T16:02:26.068Z,13.67
2022-11-26T16:04:54.916Z,14.30
2022-11-26T16:07:25.452Z,14.55
2022-11-26T16:10:12.389Z,10.55
2022-11-26T16:12:44.560Z,13.90
2022-11-26T16:15:23.569Z,12.70
2022-11-26T16:17:52.093Z,15.95
2022-11-26T16:20:22.472Z,15.63
2022-11-26T16:22:53.225Z,11.95
2022-11-26T16:25:23.908Z,13.93
2022-11-26T16:28:14.213Z,16.10
2022-11-26T16:30:44.575Z,17.08
2022-11-26T16:33:12.565Z,14.73
2022-11-26T16:35:46.021Z,13.00
2022-11-26T16:38:21.509Z,16.92
2022-11-26T16:40:49.956Z,14.45
2022-11-26T16:43:18.874Z,19.13
2022-11-26T16:45:47.383Z,13.15
2022-11-26T16:48:24.972Z,15.82
2022-11-26T16:50:53.164Z,18.42
2022-11-26T16:53:22.771Z,14.27
2022-11-26T16:55:51.902Z,14.23
2022-11-26T16:58:27.804Z,15.85
2022-11-26T17:00:56.687Z,15.02
2022-11-26T17:03:25.169Z,17.63
2022-11-26T17:05:55.923Z,14.82
2022-11-26T17:08:25.339Z,11.70
2022-11-26T17:10:53.176Z,14.57
2022-11-26T17:13:21.146Z,12.18
2022-11-26T17:15:50.494Z,10.63
2022-11-26T17:18:20.671Z,12.82
2022-11-26T17:20:48.954Z,12.73
2022-11-26T17:23:17.055Z,14.43
2022-11-26T17:25:49.415Z,21.05
2022-11-26T17:30:45.732Z,16.13
2022-11-26T17:33:13.960Z,16.25
2022-11-26T17:35:41.936Z,19.10
2022-11-26T17:38:15.760Z,25.60
2022-11-26T17:40:44.084Z,29.85
2022-11-26T17:43:13.368Z,26.08
2022-11-26T17:45:41.657Z,29.33
2022-11-26T17:48:13.886Z,30.10
2022-11-26T17:50:42.634Z,36.53
2022-11-26T17:53:10.558Z,32.15
2022-11-26T17:55:39.019Z,34.08
2022-11-26T17:58:06.856Z,30.33
2022-11-26T18:00:36.033Z,35.30
2022-11-26T18:03:04.111Z,26.17
2022-11-26T18:05:32.113Z,26.92
2022-11-26T18:07:59.984Z,28.13
2022-11-26T18:10:27.871Z,26.58
2022-11-26T18:12:56.061Z,27.20
2022-11-26T18:15:25.722Z,23.85
2022-11-26T18:17:56.041Z,22.65
2022-11-26T18:20:25.768Z,25.08
2022-11-26T18:22:55.516Z,29.75
2022-11-26T18:25:23.845Z,20.67
2022-11-26T18:27:52.338Z,22.40
2022-11-26T18:30:21.166Z,23.08
2022-11-26T18:32:49.096Z,23.33
2022-11-26T18:35:18.480Z,21.83
2022-11-26T18:37:46.423Z,19.08
2022-11-26T18:40:17.725Z,18.17
2022-11-26T18:42:45.865Z,17.60
2022-11-26T18:45:16.439Z,17.33
2022-11-26T18:47:44.458Z,21.25
2022-11-26T18:50:13.790Z,18.20
2022-11-26T18:52:42.962Z,16.30
2022-11-26T18:55:11.160Z,16.35
2022-11-26T18:57:39.028Z,16.85
2022-11-26T19:00:09.024Z,15.80
2022-11-26T19:02:37.434Z,17.85
2022-11-26T19:05:05.825Z,16.70
2022-11-26T19:07:34.193Z,14.32
2022-11-26T19:10:03.670Z,16.40
2022-11-26T19:12:31.561Z,15.15
2022-11-26T19:14:59.429Z,14.80
2022-11-26T19:17:27.315Z,16.42
2022-11-26T19:19:55.152Z,13.48
2022-11-26T19:22:23.000Z,14.40
2022-11-26T19:24:50.811Z,13.05
2022-11-26T19:27:20.001Z,14.98
2022-11-26T19:29:47.843Z,12.52
2022-11-26T19:32:15.685Z,11.98
2022-11-26T19:34:43.523Z,10.32
2022-11-26T19:37:11.352Z,11.88
2022-11-26T19:39:39.444Z,12.55
2022-11-26T19:42:07.500Z,15.43
2022-11-26T19:44:37.101Z,11.40
2022-11-26T19:47:05.459Z,18.75
2022-11-26T19:49:33.837Z,17.35
2022-11-26T19:52:01.703Z,23.52
2022-11-26T19:54:29.574Z,16.05
2022-11-26T19:56:57.408Z,18.48
2022-11-26T19:59:25.252Z,18.88
2022-11-26T20:01:55.892Z,20.52
2022-11-26T20:04:27.363Z,17.58
2022-11-26T20:06:55.261Z,15.53
2022-11-26T20:09:23.933Z,16.65
2022-11-26T20:11:51.742Z,20.05
2022-11-26T20:14:19.843Z,17.73
2022-11-26T20:16:47.682Z,19.33
2022-11-26T20:19:17.971Z,20.55
2022-11-26T20:21:45.833Z,18.75
2022-11-26T20:24:16.978Z,19.23
2022-11-26T20:26:48.473Z,19.17
2022-11-26T20:29:20.005Z,18.02
2022-11-26T20:31:49.799Z,17.65
2022-11-26T20:34:21.215Z,20.27
2022-11-26T20:36:49.734Z,11.73
2022-11-26T20:39:20.386Z,17.63
2022-11-26T20:41:48.836Z,17.02
2022-11-26T20:44:17.138Z,17.52
2022-11-26T20:46:44.983Z,18.13
2022-11-26T20:49:12.943Z,18.38
2022-11-26T20:51:42.157Z,19.33
2022-11-26T20:54:10.961Z,19.52
2022-11-26T20:56:38.937Z,14.43
2022-11-26T20:59:09.527Z,17.63
2022-11-26T21:01:38.505Z,16.77
2022-11-26T21:04:06.811Z,17.88
2022-11-26T21:06:35.711Z,11.02
2022-11-26T21:09:06.420Z,13.88
2022-11-26T21:11:34.652Z,13.73
2022-11-26T21:14:02.660Z,11.70
2022-11-26T21:16:31.343Z,14.45
2022-11-26T21:18:59.884Z,12.73
2022-11-26T21:21:29.409Z,11.95
2022-11-26T21:23:58.463Z,14.57
2022-11-26T21:26:28.143Z,11.73
2022-11-26T21:28:57.756Z,11.93
2022-11-26T21:31:26.531Z,15.60
2022-11-26T21:34:00.640Z,16.73
2022-11-26T21:36:29.772Z,15.27
2022-11-26T21:38:57.844Z,13.45
2022-11-26T21:41:27.834Z,13.73
2022-11-26T21:43:55.693Z,13.52
2022-11-26T21:46:25.370Z,12.57
2022-11-26T21:48:53.759Z,11.57
2022-11-26T21:51:22.270Z,12.27
2022-11-26T21:53:50.477Z,13.35
2022-11-26T21:56:19.966Z,12.32
2022-11-26T21:58:49.717Z,11.73
2022-11-26T22:01:20.161Z,11.70
2022-11-26T22:03:51.471Z,13.75
2022-11-26T22:06:21.092Z,14.35
2022-11-26T22:08:49.071Z,14.57
2022-11-26T22:11:18.853Z,15.05
2022-11-26T22:13:47.038Z,11.75
2022-11-26T22:16:17.984Z,10.68
2022-11-26T22:18:47.039Z,13.25
2022-11-26T22:21:17.095Z,11.25
2022-11-26T22:23:45.308Z,11.65
2022-11-26T22:26:13.300Z,12.68
2022-11-26T22:28:41.372Z,13.02
2022-11-26T22:31:11.467Z,10.93
2022-11-26T22:33:41.936Z,13.32
2022-11-26T22:36:10.390Z,10.98
2022-11-26T22:38:39.273Z,10.63
2022-11-26T22:41:10.245Z,10.82
2022-11-26T22:43:38.308Z,11.18
2022-11-26T22:46:06.893Z,13.15
2022-11-26T22:48:35.125Z,10.23
2022-11-26T22:51:04.784Z,11.20
2022-11-26T22:53:34.254Z,14.40
2022-11-26T22:56:03.919Z,11.07
2022-11-26T22:58:33.621Z,12.32
2022-11-26T23:01:03.736Z,12.93
2022-11-26T23:03:33.909Z,12.88
2022-11-26T23:06:05.299Z,9.80
2022-11-26T23:08:33.613Z,12.77
2022-11-26T23:11:06.676Z,15.80
2022-11-26T23:13:34.612Z,16.50
2022-11-26T23:16:02.521Z,15.10
2022-11-26T23:18:30.376Z,13.20
2022-11-26T23:21:07.616Z,15.50
2022-11-26T23:23:35.962Z,19.00
2022-11-26T23:26:04.900Z,15.55
2022-11-26T23:28:33.214Z,18.70
2022-11-26T23:31:02.550Z,16.08
2022-11-26T23:33:30.476Z,12.93
2022-11-26T23:35:58.743Z,11.05
2022-11-26T23:38:28.158Z,12.32
2022-11-26T23:40:57.294Z,10.45
2022-11-26T23:43:25.720Z,10.68
2022-11-26T23:46:01.598Z,9.10
2022-11-26T23:48:29.546Z,10.27
2022-11-26T23:50:57.484Z,10.18
2022-11-26T23:53:27.106Z,9.43
2022-11-26T23:55:54.933Z,7.72
2022-11-26T23:58:22.756Z,9.40
